sensor_id;sensor_type;location;lat;lon;timestamp;pressure;altitude;pressure_sealevel;temperature;humidity
36354;BME280;22383;51.114;13.666;2022-10-16T00:01:17;68755.81;;;14.19;100.00
36354;BME280;22383;51.114;13.666;2022-10-16T00:03:46;68758.09;;;14.22;100.00
36354;BME280;22383;51.114;13.666;2022-10-16T00:06:16;68759.41;;;14.25;100.00
36354;BME280;22383;51.114;13.666;2022-10-16T00:08:44;68756.41;;;14.20;100.00
36354;BME280;22383;51.114;13.666;2022-10-16T00:11:15;68743.31;;;14.08;100.00
36354;BME280;22383;51.114;13.666;2022-10-16T00:13:44;68733.47;;;13.97;100.00
36354;BME280;22383;51.114;13.666;2022-10-16T00:16:13;68719.47;;;13.87;100.00
36354;BME280;22383;51.114;13.666;2022-10-16T00:18:41;68728.16;;;13.97;100.00
36354;BME280;22383;51.114;13.666;2022-10-16T00:21:17;68725.13;;;13.92;100.00
36354;BME280;22383;51.114;13.666;2022-10-16T00:23:46;68716.41;;;13.89;100.00
36354;BME280;22383;51.114;13.666;2022-10-16T00:26:16;68716.03;;;13.84;100.00
36354;BME280;22383;51.114;13.666;2022-10-16T00:28:48;68700.63;;;13.91;100.00
36354;BME280;22383;51.114;13.666;2022-10-16T00:31:17;68730.63;;;13.94;100.00
36354;BME280;22383;51.114;13.666;2022-10-16T00:33:45;68727.03;;;13.96;100.00
36354;BME280;22383;51.114;13.666;2022-10-16T00:36:15;68729.69;;;13.96;100.00
36354;BME280;22383;51.114;13.666;2022-10-16T00:38:43;68736.69;;;14.05;100.00
36354;BME280;22383;51.114;13.666;2022-10-16T00:41:14;68746.34;;;14.13;100.00
36354;BME280;22383;51.114;13.666;2022-10-16T00:46:19;68746.91;;;14.14;100.00
36354;BME280;22383;51.114;13.666;2022-10-16T00:49:15;68754.47;;;14.23;100.00
36354;BME280;22383;51.114;13.666;2022-10-16T00:51:45;68734.72;;;14.22;100.00
36354;BME280;22383;51.114;13.666;2022-10-16T00:54:26;68766.81;;;14.32;100.00
36354;BME280;22383;51.114;13.666;2022-10-16T00:56:57;68770.06;;;14.32;100.00
36354;BME280;22383;51.114;13.666;2022-10-16T00:59:41;68767.19;;;14.30;100.00
36354;BME280;22383;51.114;13.666;2022-10-16T01:02:13;68770.22;;;14.35;100.00
36354;BME280;22383;51.114;13.666;2022-10-16T01:04:49;68764.94;;;14.28;100.00
36354;BME280;22383;51.114;13.666;2022-10-16T01:12:45;68744.44;;;14.09;100.00
36354;BME280;22383;51.114;13.666;2022-10-16T01:18:13;68730.06;;;13.94;100.00
36354;BME280;22383;51.114;13.666;2022-10-16T01:20:45;68727.41;;;13.94;100.00
36354;BME280;22383;51.114;13.666;2022-10-16T01:23:38;68724.38;;;13.89;100.00
36354;BME280;22383;51.114;13.666;2022-10-16T01:26:13;68724.75;;;13.94;100.00
36354;BME280;22383;51.114;13.666;2022-10-16T01:31:15;68712.25;;;13.83;100.00
36354;BME280;22383;51.114;13.666;2022-10-16T01:33:50;68719.06;;;13.89;100.00
36354;BME280;22383;51.114;13.666;2022-10-16T01:36:26;68726.09;;;13.90;100.00
36354;BME280;22383;51.114;13.666;2022-10-16T01:39:00;68716.22;;;13.86;100.00
36354;BME280;22383;51.114;13.666;2022-10-16T01:41:32;68723.03;;;13.92;100.00
36354;BME280;22383;51.114;13.666;2022-10-16T01:44:31;68727.59;;;13.96;100.00
36354;BME280;22383;51.114;13.666;2022-10-16T01:47:00;68721.34;;;13.91;100.00
36354;BME280;22383;51.114;13.666;2022-10-16T01:49:31;68705.44;;;13.76;100.00
36354;BME280;22383;51.114;13.666;2022-10-16T01:52:02;68716.03;;;13.84;100.00
36354;BME280;22383;51.114;13.666;2022-10-16T01:54:32;68706.56;;;13.77;100.00
36354;BME280;22383;51.114;13.666;2022-10-16T01:57:01;68680.19;;;13.73;100.00
36354;BME280;22383;51.114;13.666;2022-10-16T01:59:31;68689.50;;;13.62;100.00
36354;BME280;22383;51.114;13.666;2022-10-16T02:02:06;68701.25;;;13.70;100.00
36354;BME280;22383;51.114;13.666;2022-10-16T02:04:51;68696.72;;;13.66;100.00
36354;BME280;22383;51.114;13.666;2022-10-16T02:07:20;68709.41;;;13.80;100.00
36354;BME280;22383;51.114;13.666;2022-10-16T02:09:47;68703.34;;;13.77;100.00
36354;BME280;22383;51.114;13.666;2022-10-16T02:12:26;68713.56;;;13.86;100.00
36354;BME280;22383;51.114;13.666;2022-10-16T02:14:54;68713.59;;;13.79;100.00
36354;BME280;22383;51.114;13.666;2022-10-16T02:17:22;68701.81;;;13.71;100.00
36354;BME280;22383;51.114;13.666;2022-10-16T02:19:51;68695.19;;;13.67;100.00
36354;BME280;22383;51.114;13.666;2022-10-16T02:22:30;68700.31;;;13.72;100.00
36354;BME280;22383;51.114;13.666;2022-10-16T02:25:04;68708.81;;;13.79;100.00
36354;BME280;22383;51.114;13.666;2022-10-16T02:27:52;68713.78;;;13.82;100.00
36354;BME280;22383;51.114;13.666;2022-10-16T02:30:33;68709.81;;;13.78;100.00
36354;BME280;22383;51.114;13.666;2022-10-16T02:33:04;68722.47;;;13.92;100.00
36354;BME280;22383;51.114;13.666;2022-10-16T02:35:33;68717.16;;;13.85;100.00
36354;BME280;22383;51.114;13.666;2022-10-16T02:38:01;68711.69;;;13.82;100.00
36354;BME280;22383;51.114;13.666;2022-10-16T02:40:29;68712.81;;;13.83;100.00
36354;BME280;22383;51.114;13.666;2022-10-16T02:42:56;68708.25;;;13.79;100.00
36354;BME280;22383;51.114;13.666;2022-10-16T02:45:28;68708.25;;;13.79;100.00
36354;BME280;22383;51.114;13.666;2022-10-16T02:47:56;68719.47;;;13.87;100.00
36354;BME280;22383;51.114;13.666;2022-10-16T02:50:23;68712.81;;;13.83;100.00
36354;BME280;22383;51.114;13.666;2022-10-16T02:52:52;68712.63;;;13.80;100.00
36354;BME280;22383;51.114;13.666;2022-10-16T02:55:19;68710.34;;;13.78;100.00
36354;BME280;22383;51.114;13.666;2022-10-16T02:57:46;68705.75;;;13.96;100.00
36354;BME280;22383;51.114;13.666;2022-10-16T03:00:16;68730.44;;;13.99;100.00
36354;BME280;22383;51.114;13.666;2022-10-16T03:02:44;68728.34;;;13.99;100.00
36354;BME280;22383;51.114;13.666;2022-10-16T03:05:11;68721.91;;;13.91;100.00
36354;BME280;22383;51.114;13.666;2022-10-16T03:07:39;68722.84;;;13.90;100.00
36354;BME280;22383;51.114;13.666;2022-10-16T03:10:06;68703.47;;;13.94;100.00
36354;BME280;22383;51.114;13.666;2022-10-16T03:12:34;68728.53;;;13.95;100.00
36354;BME280;22383;51.114;13.666;2022-10-16T03:15:01;68737.63;;;14.03;100.00
36354;BME280;22383;51.114;13.666;2022-10-16T03:17:29;68727.41;;;13.94;100.00
36354;BME280;22383;51.114;13.666;2022-10-16T03:19:57;68735.38;;;14.01;100.00
36354;BME280;22383;51.114;13.666;2022-10-16T03:22:24;68739.91;;;14.05;100.00
36354;BME280;22383;51.114;13.666;2022-10-16T03:24:51;68735.53;;;14.04;100.00
36354;BME280;22383;51.114;13.666;2022-10-16T03:27:19;68723.59;;;13.93;100.00
36354;BME280;22383;51.114;13.666;2022-10-16T03:29:46;68726.06;;;13.97;100.00
36354;BME280;22383;51.114;13.666;2022-10-16T03:32:13;68726.84;;;13.93;100.00
36354;BME280;22383;51.114;13.666;2022-10-16T03:34:40;68729.28;;;13.98;100.00
36354;BME280;22383;51.114;13.666;2022-10-16T03:37:08;68701.78;;;13.92;100.00
36354;BME280;22383;51.114;13.666;2022-10-16T03:39:36;68731.56;;;14.00;100.00
36354;BME280;22383;51.114;13.666;2022-10-16T03:42:03;68735.19;;;13.98;100.00
36354;BME280;22383;51.114;13.666;2022-10-16T03:44:30;68729.69;;;13.96;100.00
36354;BME280;22383;51.114;13.666;2022-10-16T03:46:58;68731.97;;;13.98;100.00
36354;BME280;22383;51.114;13.666;2022-10-16T03:49:25;68701.78;;;13.92;100.00
36354;BME280;22383;51.114;13.666;2022-10-16T03:51:52;68715.47;;;13.83;100.00
36354;BME280;22383;51.114;13.666;2022-10-16T03:54:19;68714.50;;;13.85;100.00
36354;BME280;22383;51.114;13.666;2022-10-16T03:56:47;68713.19;;;13.81;100.00
36354;BME280;22383;51.114;13.666;2022-10-16T03:59:14;68707.13;;;13.78;100.00
36354;BME280;22383;51.114;13.666;2022-10-16T04:01:41;68708.09;;;13.76;100.00
36354;BME280;22383;51.114;13.666;2022-10-16T04:04:09;68708.66;;;13.77;100.00
36354;BME280;22383;51.114;13.666;2022-10-16T04:06:36;68704.13;;;13.73;100.00
36354;BME280;22383;51.114;13.666;2022-10-16T04:09:04;68704.13;;;13.73;100.00
36354;BME280;22383;51.114;13.666;2022-10-16T04:11:31;68698.03;;;13.70;100.00
36354;BME280;22383;51.114;13.666;2022-10-16T04:13:59;68695.78;;;13.68;100.00
36354;BME280;22383;51.114;13.666;2022-10-16T04:16:26;68691.97;;;13.67;100.00
36354;BME280;22383;51.114;13.666;2022-10-16T04:18:54;68702.41;;;13.71;100.00
36354;BME280;22383;51.114;13.666;2022-10-16T04:21:21;68678.47;;;13.71;100.00
36354;BME280;22383;51.114;13.666;2022-10-16T04:23:49;68685.88;;;13.78;100.00
36354;BME280;22383;51.114;13.666;2022-10-16T04:26:16;68716.59;;;13.84;100.00
36354;BME280;22383;51.114;13.666;2022-10-16T04:28:44;68722.84;;;13.90;100.00
36354;BME280;22383;51.114;13.666;2022-10-16T04:31:11;68697.78;;;13.89;100.00
36354;BME280;22383;51.114;13.666;2022-10-16T04:33:38;68725.13;;;13.92;100.00
36354;BME280;22383;51.114;13.666;2022-10-16T04:36:06;68732.34;;;13.96;100.00
36354;BME280;22383;51.114;13.666;2022-10-16T04:38:33;68732.72;;;14.01;100.00
36354;BME280;22383;51.114;13.666;2022-10-16T04:41:00;68730.81;;;13.97;100.00
36354;BME280;22383;51.114;13.666;2022-10-16T04:43:31;68734.41;;;14.03;100.00
36354;BME280;22383;51.114;13.666;2022-10-16T04:45:58;68728.34;;;13.99;100.00
36354;BME280;22383;51.114;13.666;2022-10-16T04:48:26;68741.63;;;14.07;100.00
36354;BME280;22383;51.114;13.666;2022-10-16T04:50:53;68723.34;;;14.12;100.00
36354;BME280;22383;51.114;13.666;2022-10-16T04:53:21;68747.09;;;14.16;100.00
36354;BME280;22383;51.114;13.666;2022-10-16T04:55:49;68747.88;;;14.12;100.00
36354;BME280;22383;51.114;13.666;2022-10-16T04:58:17;68747.47;;;14.14;100.00
36354;BME280;22383;51.114;13.666;2022-10-16T05:00:45;68749.56;;;14.14;100.00
36354;BME280;22383;51.114;13.666;2022-10-16T05:03:13;68747.88;;;14.12;100.00
36354;BME280;22383;51.114;13.666;2022-10-16T05:05:45;68745.59;;;14.10;100.00
36354;BME280;22383;51.114;13.666;2022-10-16T05:08:14;68733.66;;;13.99;100.00
36354;BME280;22383;51.114;13.666;2022-10-16T05:10:42;68734.63;;;13.98;100.00
36354;BME280;22383;51.114;13.666;2022-10-16T05:13:10;68724.16;;;13.93;100.00
36354;BME280;22383;51.114;13.666;2022-10-16T05:15:37;68715.09;;;13.85;100.00
36354;BME280;22383;51.114;13.666;2022-10-16T05:18:05;68719.47;;;13.87;100.00
36354;BME280;22383;51.114;13.666;2022-10-16T05:20:32;68713.00;;;13.86;100.00
36354;BME280;22383;51.114;13.666;2022-10-16T05:22:59;68720.59;;;13.88;100.00
36354;BME280;22383;51.114;13.666;2022-10-16T05:25:27;68714.50;;;13.85;100.00
36354;BME280;22383;51.114;13.666;2022-10-16T05:27:54;68685.88;;;13.78;100.00
36354;BME280;22383;51.114;13.666;2022-10-16T05:30:21;68707.50;;;13.76;100.00
36354;BME280;22383;51.114;13.666;2022-10-16T05:32:50;68701.81;;;13.71;100.00
36354;BME280;22383;51.114;13.666;2022-10-16T05:35:19;68707.69;;;13.78;100.00
36354;BME280;22383;51.114;13.666;2022-10-16T05:37:47;68714.13;;;13.87;100.00
36354;BME280;22383;51.114;13.666;2022-10-16T05:40:15;68716.03;;;13.84;100.00
36354;BME280;22383;51.114;13.666;2022-10-16T05:42:43;68710.16;;;13.83;100.00
36354;BME280;22383;51.114;13.666;2022-10-16T05:45:11;68710.53;;;13.81;100.00
36354;BME280;22383;51.114;13.666;2022-10-16T05:47:39;68709.41;;;13.80;100.00
36354;BME280;22383;51.114;13.666;2022-10-16T05:50:07;68702.78;;;13.76;100.00
36354;BME280;22383;51.114;13.666;2022-10-16T05:52:34;68702.41;;;13.71;100.00
36354;BME280;22383;51.114;13.666;2022-10-16T05:55:02;68695.78;;;13.68;100.00
36354;BME280;22383;51.114;13.666;2022-10-16T05:57:29;68682.44;;;13.75;100.00
36354;BME280;22383;51.114;13.666;2022-10-16T05:59:57;68712.25;;;13.83;100.00
36354;BME280;22383;51.114;13.666;2022-10-16T06:02:24;68713.38;;;13.84;100.00
36354;BME280;22383;51.114;13.666;2022-10-16T06:04:52;68706.16;;;13.79;100.00
36354;BME280;22383;51.114;13.666;2022-10-16T06:07:22;68722.47;;;13.92;100.00
36354;BME280;22383;51.114;13.666;2022-10-16T06:09:51;68691.53;;;13.83;100.00
36354;BME280;22383;51.114;13.666;2022-10-16T06:12:19;68701.78;;;13.92;100.00
36354;BME280;22383;51.114;13.666;2022-10-16T06:14:46;68723.22;;;13.95;100.00
36354;BME280;22383;51.114;13.666;2022-10-16T06:17:14;68730.81;;;13.97;100.00
36354;BME280;22383;51.114;13.666;2022-10-16T06:19:42;68738.75;;;14.04;100.00
36354;BME280;22383;51.114;13.666;2022-10-16T06:22:09;68745.03;;;14.10;100.00
36354;BME280;22383;51.114;13.666;2022-10-16T06:24:36;68739.53;;;14.07;100.00
36354;BME280;22383;51.114;13.666;2022-10-16T06:27:04;68746.75;;;14.11;100.00
36354;BME280;22383;51.114;13.666;2022-10-16T06:29:31;68742.94;;;14.10;100.00
36354;BME280;22383;51.114;13.666;2022-10-16T06:31:59;68735.53;;;14.04;100.00
36354;BME280;22383;51.114;13.666;2022-10-16T06:34:26;68738.41;;;14.06;100.00
36354;BME280;22383;51.114;13.666;2022-10-16T06:36:54;68753.56;;;14.17;100.00
36354;BME280;22383;51.114;13.666;2022-10-16T06:39:22;68769.09;;;14.27;100.00
36354;BME280;22383;51.114;13.666;2022-10-16T06:41:49;68765.69;;;14.31;100.00
36354;BME280;22383;51.114;13.666;2022-10-16T06:44:17;68755.75;;;14.41;100.00
36354;BME280;22383;51.114;13.666;2022-10-16T06:46:44;68769.66;;;14.34;100.00
36354;BME280;22383;51.114;13.666;2022-10-16T06:49:11;68767.38;;;14.32;100.00
36354;BME280;22383;51.114;13.666;2022-10-16T06:51:38;68768.34;;;14.31;100.00
36354;BME280;22383;51.114;13.666;2022-10-16T06:54:09;68756.97;;;14.21;100.00
36354;BME280;22383;51.114;13.666;2022-10-16T06:56:37;68761.50;;;14.25;100.00
36354;BME280;22383;51.114;13.666;2022-10-16T06:59:04;68764.53;;;14.30;100.00
36354;BME280;22383;51.114;13.666;2022-10-16T07:01:32;68770.63;;;14.33;100.00
36354;BME280;22383;51.114;13.666;2022-10-16T07:04:00;68784.25;;;14.45;100.00
36354;BME280;22383;51.114;13.666;2022-10-16T07:06:31;68795.03;;;14.55;100.00
36354;BME280;22383;51.114;13.666;2022-10-16T07:09:01;68773.38;;;14.57;100.00
36354;BME280;22383;51.114;13.666;2022-10-16T07:11:29;68797.34;;;14.57;100.00
36354;BME280;22383;51.114;13.666;2022-10-16T07:13:57;68810.06;;;14.71;100.00
36354;BME280;22383;51.114;13.666;2022-10-16T07:16:27;68821.06;;;14.76;100.00
36354;BME280;22383;51.114;13.666;2022-10-16T07:18:56;68827.28;;;14.89;100.00
36354;BME280;22383;51.114;13.666;2022-10-16T07:21:30;68811.47;;;14.91;100.00
36354;BME280;22383;51.114;13.666;2022-10-16T07:24:06;68809.22;;;14.89;100.00
36354;BME280;22383;51.114;13.666;2022-10-16T07:26:36;68835.66;;;14.94;100.00
36354;BME280;22383;51.114;13.666;2022-10-16T07:29:04;68840.75;;;14.99;100.00
36354;BME280;22383;51.114;13.666;2022-10-16T07:31:31;68827.41;;;15.06;100.00
36354;BME280;22383;51.114;13.666;2022-10-16T07:33:59;68863.50;;;15.19;100.00
36354;BME280;22383;51.114;13.666;2022-10-16T07:36:27;68838.78;;;15.16;100.00
36354;BME280;22383;51.114;13.666;2022-10-16T07:38:55;68870.72;;;15.23;100.00
36354;BME280;22383;51.114;13.666;2022-10-16T07:41:26;68849.59;;;15.26;100.00
36354;BME280;22383;51.114;13.666;2022-10-16T07:43:54;68888.94;;;15.40;100.00
36354;BME280;22383;51.114;13.666;2022-10-16T07:46:21;68862.66;;;15.38;100.00
36354;BME280;22383;51.114;13.666;2022-10-16T07:48:49;68888.94;;;15.40;100.00
36354;BME280;22383;51.114;13.666;2022-10-16T07:51:18;68866.66;;;15.41;100.00
36354;BME280;22383;51.114;13.666;2022-10-16T07:53:47;68870.06;;;15.44;100.00
36354;BME280;22383;51.114;13.666;2022-10-16T07:56:15;68870.63;;;15.45;100.00
36354;BME280;22383;51.114;13.666;2022-10-16T07:58:43;68879.72;;;15.53;100.00
36354;BME280;22383;51.114;13.666;2022-10-16T08:01:13;68889.38;;;15.62;100.00
36354;BME280;22383;51.114;13.666;2022-10-16T08:03:59;68911.47;;;15.65;100.00
36354;BME280;22383;51.114;13.666;2022-10-16T08:06:26;68912.84;;;15.61;100.00
36354;BME280;22383;51.114;13.666;2022-10-16T08:08:54;68909.03;;;15.60;100.00
36354;BME280;22383;51.114;13.666;2022-10-16T08:11:22;68915.09;;;15.63;100.00
36354;BME280;22383;51.114;13.666;2022-10-16T08:13:50;68905.22;;;15.59;100.00
36354;BME280;22383;51.114;13.666;2022-10-16T08:16:17;68889.38;;;15.62;100.00
36354;BME280;22383;51.114;13.666;2022-10-16T08:18:45;68922.09;;;15.72;100.00
36354;BME280;22383;51.114;13.666;2022-10-16T08:21:14;68949.28;;;15.94;100.00
36354;BME280;22383;51.114;13.666;2022-10-16T08:23:48;68939.50;;;16.07;100.00
36354;BME280;22383;51.114;13.666;2022-10-16T08:26:23;68961.09;;;16.26;100.00
36354;BME280;22383;51.114;13.666;2022-10-16T08:28:50;68992.16;;;16.35;100.00
36354;BME280;22383;51.114;13.666;2022-10-16T08:31:19;68983.88;;;16.47;100.00
36354;BME280;22383;51.114;13.666;2022-10-16T08:33:46;68991.28;;;16.54;100.00
36354;BME280;22383;51.114;13.666;2022-10-16T08:36:15;68999.81;;;16.61;100.00
36354;BME280;22383;51.114;13.666;2022-10-16T08:38:43;69042.09;;;16.78;100.00
36354;BME280;22383;51.114;13.666;2022-10-16T08:47:02;69069.06;;;17.05;100.00
36354;BME280;22383;51.114;13.666;2022-10-16T08:49:37;69062.47;;;17.18;100.00
36354;BME280;22383;51.114;13.666;2022-10-16T08:52:13;69092.41;;;17.26;100.00
36354;BME280;22383;51.114;13.666;2022-10-16T08:54:44;69085.97;;;17.17;100.00
36354;BME280;22383;51.114;13.666;2022-10-16T08:57:17;69095.09;;;17.26;100.00
36354;BME280;22383;51.114;13.666;2022-10-16T08:59:51;69142.56;;;17.71;100.00
36354;BME280;22383;51.114;13.666;2022-10-16T09:02:31;69138.00;;;17.67;100.00
36354;BME280;22383;51.114;13.666;2022-10-16T09:07:58;69102.28;;;17.37;100.00
36354;BME280;22383;51.114;13.666;2022-10-16T09:10:54;69064.78;;;17.20;100.00
36354;BME280;22383;51.114;13.666;2022-10-16T09:13:28;69092.66;;;17.45;100.00
36354;BME280;22383;51.114;13.666;2022-10-16T09:18:51;69161.97;;;17.88;100.00
36354;BME280;22383;51.114;13.666;2022-10-16T09:21:25;69198.69;;;18.41;100.00
36354;BME280;22383;51.114;13.666;2022-10-16T09:23:57;69240.63;;;18.59;100.00
36354;BME280;22383;51.114;13.666;2022-10-16T09:26:26;69216.38;;;18.57;100.00
36354;BME280;22383;51.114;13.666;2022-10-16T09:28:53;69251.47;;;18.69;100.00
36354;BME280;22383;51.114;13.666;2022-10-16T09:31:22;69211.78;;;18.52;100.00
36354;BME280;22383;51.114;13.666;2022-10-16T09:33:55;69220.84;;;18.44;100.00
36354;BME280;22383;51.114;13.666;2022-10-16T09:36:26;69214.06;;;18.55;100.00
36354;BME280;22383;51.114;13.666;2022-10-16T09:39:07;69210.06;;;18.51;100.00
36354;BME280;22383;51.114;13.666;2022-10-16T09:41:37;69203.25;;;18.45;100.00
36354;BME280;22383;51.114;13.666;2022-10-16T09:49:51;69255.28;;;18.70;100.00
36354;BME280;22383;51.114;13.666;2022-10-16T09:52:19;69239.75;;;18.78;100.00
36354;BME280;22383;51.114;13.666;2022-10-16T09:54:53;69252.84;;;18.89;100.00
36354;BME280;22383;51.114;13.666;2022-10-16T09:57:22;69283.84;;;18.96;100.00
36354;BME280;22383;51.114;13.666;2022-10-16T09:59:55;69271.69;;;19.06;100.00
36354;BME280;22383;51.114;13.666;2022-10-16T10:02:30;69275.66;;;19.10;100.00
36354;BME280;22383;51.114;13.666;2022-10-16T10:04:59;69306.66;;;19.16;100.00
36354;BME280;22383;51.114;13.666;2022-10-16T10:07:33;69276.25;;;19.11;100.00
36354;BME280;22383;51.114;13.666;2022-10-16T10:10:04;69269.41;;;19.04;100.00
36354;BME280;22383;51.114;13.666;2022-10-16T10:12:33;69262.00;;;18.98;100.00
36354;BME280;22383;51.114;13.666;2022-10-16T10:15:13;69307.38;;;19.19;100.00
36354;BME280;22383;51.114;13.666;2022-10-16T10:17:49;69347.75;;;19.53;100.00
36354;BME280;22383;51.114;13.666;2022-10-16T10:20:33;69349.84;;;19.77;100.00
36354;BME280;22383;51.114;13.666;2022-10-16T10:23:20;69383.91;;;19.88;100.00
36354;BME280;22383;51.114;13.666;2022-10-16T10:26:05;69373.81;;;19.98;100.00
36354;BME280;22383;51.114;13.666;2022-10-16T10:29:03;69348.72;;;19.76;100.00
36354;BME280;22383;51.114;13.666;2022-10-16T10:31:45;69353.84;;;19.80;100.00
36354;BME280;22383;51.114;13.666;2022-10-16T10:34:50;69346.41;;;19.74;100.00
36354;BME280;22383;51.114;13.666;2022-10-16T10:37:26;69389.81;;;20.13;100.00
36354;BME280;22383;51.114;13.666;2022-10-16T10:42:53;69394.72;;;19.98;100.00
36354;BME280;22383;51.114;13.666;2022-10-16T10:51:13;69350.78;;;19.58;100.00
36354;BME280;22383;51.114;13.666;2022-10-16T10:53:55;69313.91;;;19.44;100.00
36354;BME280;22383;51.114;13.666;2022-10-16T10:59:32;69317.31;;;19.48;100.00
36354;BME280;22383;51.114;13.666;2022-10-16T11:05:08;69350.41;;;19.77;100.00
36354;BME280;22383;51.114;13.666;2022-10-16T11:10:27;69442.31;;;20.60;100.00
36354;BME280;22383;51.114;13.666;2022-10-16T11:13:39;69428.41;;;20.28;100.00
36354;BME280;22383;51.114;13.666;2022-10-16T11:16:26;69423.84;;;20.24;100.00
36354;BME280;22383;51.114;13.666;2022-10-16T11:19:26;69429.41;;;20.27;100.00
36354;BME280;22383;51.114;13.666;2022-10-16T11:22:04;69421.16;;;20.24;100.00
36354;BME280;22383;51.114;13.666;2022-10-16T11:24:40;69391.53;;;20.14;100.00
36354;BME280;22383;51.114;13.666;2022-10-16T11:27:11;69407.88;;;20.10;100.00
36354;BME280;22383;51.114;13.666;2022-10-16T11:29:55;69394.56;;;19.95;100.00
36354;BME280;22383;51.114;13.666;2022-10-16T11:35:53;69390.41;;;19.89;100.00
36354;BME280;22383;51.114;13.666;2022-10-16T11:38:40;69374.97;;;19.99;100.00
36354;BME280;22383;51.114;13.666;2022-10-16T11:41:18;69389.03;;;19.93;100.00
36354;BME280;22383;51.114;13.666;2022-10-16T11:43:56;69357.84;;;19.84;100.00
36354;BME280;22383;51.114;13.666;2022-10-16T11:46:25;69377.25;;;20.01;100.00
36354;BME280;22383;51.114;13.666;2022-10-16T11:49:02;69430.94;;;20.26;100.00
36354;BME280;22383;51.114;13.666;2022-10-16T11:51:41;69432.59;;;20.34;100.00
36354;BME280;22383;51.114;13.666;2022-10-16T11:54:28;69396.63;;;20.19;100.00
36354;BME280;22383;51.114;13.666;2022-10-16T11:57:09;69389.22;;;20.12;100.00
36354;BME280;22383;51.114;13.666;2022-10-16T12:00:04;69399.28;;;20.02;100.00
36354;BME280;22383;51.114;13.666;2022-10-16T12:02:40;69418.91;;;20.39;100.00
36354;BME280;22383;51.114;13.666;2022-10-16T12:05:25;69462.84;;;20.62;100.00
36354;BME280;22383;51.114;13.666;2022-10-16T12:10:29;69435.28;;;20.34;100.00
36354;BME280;22383;51.114;13.666;2022-10-16T12:12:59;69415.84;;;20.17;100.00
36354;BME280;22383;51.114;13.666;2022-10-16T12:15:29;69394.38;;;20.17;100.00
36354;BME280;22383;51.114;13.666;2022-10-16T12:18:24;69384.66;;;20.08;100.00
36354;BME280;22383;51.114;13.666;2022-10-16T12:20:59;69420.41;;;20.21;100.00
36354;BME280;22383;51.114;13.666;2022-10-16T12:23:33;69414.34;;;20.35;100.00
36354;BME280;22383;51.114;13.666;2022-10-16T12:26:04;69408.03;;;20.12;100.00
36354;BME280;22383;51.114;13.666;2022-10-16T12:28:32;69410.16;;;20.12;100.00
36354;BME280;22383;51.114;13.666;2022-10-16T12:31:05;69361.25;;;19.87;100.00
36354;BME280;22383;51.114;13.666;2022-10-16T12:33:35;69360.69;;;19.87;100.00
36354;BME280;22383;51.114;13.666;2022-10-16T12:36:32;69367.53;;;19.93;100.00
36354;BME280;22383;51.114;13.666;2022-10-16T12:39:01;69405.41;;;20.05;100.00
36354;BME280;22383;51.114;13.666;2022-10-16T12:41:34;69413.00;;;20.14;100.00
36354;BME280;22383;51.114;13.666;2022-10-16T12:44:03;69418.38;;;20.14;100.00
36354;BME280;22383;51.114;13.666;2022-10-16T12:49:23;69396.44;;;19.99;100.00
36354;BME280;22383;51.114;13.666;2022-10-16T12:51:56;69385.03;;;19.89;100.00
36354;BME280;22383;51.114;13.666;2022-10-16T12:54:28;69381.44;;;19.83;100.00
36354;BME280;22383;51.114;13.666;2022-10-16T13:10:59;69347.91;;;19.56;100.00
36354;BME280;22383;51.114;13.666;2022-10-16T13:22:21;69335.38;;;19.44;100.00
36354;BME280;22383;51.114;13.666;2022-10-16T13:27:56;69332.91;;;19.40;100.00
36354;BME280;22383;51.114;13.666;2022-10-16T13:30:54;69321.66;;;19.32;100.00
36354;BME280;22383;51.114;13.666;2022-10-16T13:33:34;69316.38;;;19.25;100.00
36354;BME280;22383;51.114;13.666;2022-10-16T13:36:04;69303.81;;;19.14;100.00
36354;BME280;22383;51.114;13.666;2022-10-16T13:38:36;69275.66;;;19.10;100.00
36354;BME280;22383;51.114;13.666;2022-10-16T13:41:06;69269.97;;;19.05;100.00
36354;BME280;22383;51.114;13.666;2022-10-16T13:43:49;69293.13;;;19.06;100.00
36354;BME280;22383;51.114;13.666;2022-10-16T13:46:22;69281.56;;;18.94;100.00
36354;BME280;22383;51.114;13.666;2022-10-16T13:49:04;69283.44;;;18.98;100.00
36354;BME280;22383;51.114;13.666;2022-10-16T13:51:32;69293.53;;;19.04;100.00
36354;BME280;22383;51.114;13.666;2022-10-16T13:54:00;69309.66;;;19.21;100.00
36354;BME280;22383;51.114;13.666;2022-10-16T13:56:32;69322.78;;;19.33;100.00
36354;BME280;22383;51.114;13.666;2022-10-16T13:59:22;69335.38;;;19.44;100.00
36354;BME280;22383;51.114;13.666;2022-10-16T14:01:52;69343.75;;;19.50;100.00
36354;BME280;22383;51.114;13.666;2022-10-16T14:04:23;69331.38;;;19.41;100.00
36354;BME280;22383;51.114;13.666;2022-10-16T14:06:57;69308.75;;;19.40;100.00
36354;BME280;22383;51.114;13.666;2022-10-16T14:09:29;69312.19;;;19.43;100.00
36354;BME280;22383;51.114;13.666;2022-10-16T14:12:03;69314.47;;;19.45;100.00
36354;BME280;22383;51.114;13.666;2022-10-16T14:14:40;69304.75;;;19.36;100.00
36354;BME280;22383;51.114;13.666;2022-10-16T14:17:34;69330.78;;;19.40;100.00
36354;BME280;22383;51.114;13.666;2022-10-16T14:20:05;69339.91;;;19.49;100.00
36354;BME280;22383;51.114;13.666;2022-10-16T14:22:35;69332.50;;;19.42;100.00
36354;BME280;22383;51.114;13.666;2022-10-16T14:25:28;69324.50;;;19.35;100.00
36354;BME280;22383;51.114;13.666;2022-10-16T14:28:03;69333.66;;;19.43;100.00